createdAt,value
2022-08-05T00:01:48.530Z,33.55
2022-08-05T00:04:23.684Z,33.13
2022-08-05T00:06:52.061Z,32.44
2022-08-05T00:09:22.700Z,32.42
2022-08-05T00:11:59.671Z,32.60
2022-08-05T00:14:29.199Z,32.13
2022-08-05T00:17:01.825Z,31.84
2022-08-05T00:19:33.410Z,32.40
2022-08-05T00:22:11.765Z,32.44
2022-08-05T00:24:45.380Z,32.60
2022-08-05T00:27:35.939Z,32.89
2022-08-05T00:30:05.125Z,32.76
2022-08-05T00:32:38.998Z,33.32
2022-08-05T00:35:10.304Z,33.08
2022-08-05T00:37:53.548Z,32.38
2022-08-05T00:40:29.287Z,33.39
2022-08-05T00:42:59.197Z,33.80
2022-08-05T00:45:37.813Z,34.04
2022-08-05T00:48:09.493Z,33.21
2022-08-05T00:50:44.236Z,33.86
2022-08-05T00:54:00.738Z,33.64
2022-08-05T00:56:05.643Z,32.83
2022-08-05T00:58:36.167Z,33.17
2022-08-05T01:01:08.667Z,32.78
2022-08-05T01:03:39.604Z,32.93
2022-08-05T01:06:11.166Z,32.33
2022-08-05T01:08:48.974Z,32.03
2022-08-05T01:11:36.704Z,32.27
2022-08-05T01:14:32.556Z,32.91
2022-08-05T01:17:11.324Z,32.63
2022-08-05T01:20:02.865Z,34.23
2022-08-05T01:22:46.821Z,33.05
2022-08-05T01:25:40.367Z,32.84
2022-08-05T01:28:18.988Z,33.21
2022-08-05T01:30:53.765Z,32.77
2022-08-05T01:33:26.234Z,32.06
2022-08-05T01:35:59.033Z,32.60
2022-08-05T01:38:29.941Z,32.26
2022-08-05T01:41:01.798Z,32.03
2022-08-05T01:43:33.101Z,32.57
2022-08-05T01:46:16.141Z,32.30
2022-08-05T01:48:49.796Z,32.06
2022-08-05T01:51:18.849Z,31.89
2022-08-05T01:53:57.433Z,31.76
2022-08-05T01:58:12.772Z,31.78
2022-08-05T01:59:31.642Z,32.08
2022-08-05T02:02:01.896Z,31.64
2022-08-05T02:04:33.314Z,31.54
2022-08-05T02:07:03.408Z,31.17
2022-08-05T02:09:35.880Z,31.04
2022-08-05T02:12:32.808Z,31.24
2022-08-05T02:15:12.038Z,32.42
2022-08-05T02:18:32.359Z,32.16
2022-08-05T02:21:02.445Z,33.41
2022-08-05T02:23:33.864Z,33.45
2022-08-05T02:26:08.544Z,34.45
2022-08-05T02:28:45.988Z,34.47
2022-08-05T02:31:22.011Z,34.50
2022-08-05T02:34:03.739Z,33.87
2022-08-05T02:36:41.918Z,33.94
2022-08-05T02:39:12.599Z,34.11
2022-08-05T02:41:57.511Z,34.51
2022-08-05T02:44:36.549Z,34.64
2022-08-05T02:47:06.344Z,34.52
2022-08-05T02:49:40.611Z,34.77
2022-08-05T02:52:30.095Z,35.24
2022-08-05T02:55:01.928Z,35.71
2022-08-05T02:58:11.266Z,35.97
2022-08-05T03:00:25.348Z,35.74
2022-08-05T03:02:59.169Z,35.92
2022-08-05T03:06:57.090Z,36.47
2022-08-05T03:08:26.940Z,36.85
2022-08-05T03:11:01.188Z,36.79
2022-08-05T03:13:51.683Z,36.93
2022-08-05T03:16:41.297Z,37.58
2022-08-05T03:19:12.810Z,36.92
2022-08-05T03:21:48.939Z,36.66
2022-08-05T03:24:23.674Z,36.95
2022-08-05T03:26:59.033Z,36.89
2022-08-05T03:29:44.532Z,36.77
2022-08-05T03:32:14.248Z,37.16
2022-08-05T03:34:49.571Z,37.14
2022-08-05T03:37:21.776Z,37.18
2022-08-05T03:40:01.709Z,36.88
2022-08-05T03:42:41.468Z,37.13
2022-08-05T03:45:23.564Z,37.72
2022-08-05T03:47:51.621Z,38.18
2022-08-05T03:50:20.376Z,38.28
2022-08-05T03:55:50.017Z,38.82
2022-08-05T03:56:17.184Z,38.67
2022-08-05T03:58:57.673Z,37.94
2022-08-05T04:01:27.623Z,38.30
2022-08-05T04:04:09.723Z,38.15
2022-08-05T04:06:42.788Z,38.47
2022-08-05T04:09:20.185Z,38.17
2022-08-05T04:11:54.234Z,37.94
2022-08-05T04:14:29.469Z,38.38
2022-08-05T04:17:03.098Z,38.74
2022-08-05T04:19:31.270Z,39.34
2022-08-05T04:22:08.747Z,38.82
2022-08-05T04:24:52.589Z,38.48
2022-08-05T04:27:33.052Z,38.74
2022-08-05T04:30:11.670Z,38.93
2022-08-05T04:32:48.004Z,39.00
2022-08-05T04:35:19.577Z,38.13
2022-08-05T04:38:01.296Z,37.45
2022-08-05T04:40:44.450Z,38.91
2022-08-05T04:43:18.478Z,38.15
2022-08-05T04:45:55.677Z,37.75
2022-08-05T04:48:27.822Z,37.70
2022-08-05T04:51:02.696Z,37.66
2022-08-05T04:53:35.499Z,37.62
2022-08-05T04:56:32.979Z,37.80
2022-08-05T04:58:59.232Z,37.62
2022-08-05T05:02:06.057Z,37.87
2022-08-05T05:04:14.638Z,37.87
2022-08-05T05:06:44.652Z,37.51
2022-08-05T05:09:17.561Z,37.07
2022-08-05T05:11:53.237Z,36.38
2022-08-05T05:14:28.091Z,35.46
2022-08-05T05:17:03.298Z,35.29
2022-08-05T05:19:36.428Z,35.35
2022-08-05T05:22:23.739Z,35.05
2022-08-05T05:24:58.186Z,35.21
2022-08-05T05:27:44.195Z,35.00
2022-08-05T05:30:15.560Z,34.97
2022-08-05T05:33:00.770Z,34.80
2022-08-05T05:35:37.715Z,34.75
2022-08-05T05:38:09.188Z,34.55
2022-08-05T05:40:48.383Z,33.80
2022-08-05T05:43:54.097Z,34.39
2022-08-05T05:46:17.212Z,34.56
2022-08-05T05:48:48.118Z,35.18
2022-08-05T05:51:23.492Z,34.83
2022-08-05T05:53:58.099Z,35.46
2022-08-05T05:56:32.507Z,35.02
2022-08-05T05:59:06.661Z,36.01
2022-08-05T06:01:37.349Z,35.59
2022-08-05T06:04:16.361Z,35.27
2022-08-05T06:06:49.995Z,35.48
2022-08-05T06:09:27.484Z,35.18
2022-08-05T06:12:09.712Z,35.50
2022-08-05T06:14:40.295Z,34.76
2022-08-05T06:17:52.376Z,34.15
2022-08-05T06:20:00.337Z,33.82
2022-08-05T06:22:29.885Z,33.63
2022-08-05T06:24:57.837Z,33.74
2022-08-05T06:28:10.998Z,33.34
2022-08-05T06:30:16.858Z,32.49
2022-08-05T06:32:48.132Z,33.19
2022-08-05T06:36:03.180Z,33.29
2022-08-05T06:38:11.113Z,33.27
2022-08-05T06:40:47.418Z,32.05
2022-08-05T06:43:57.392Z,31.08
2022-08-05T06:46:07.668Z,31.51
2022-08-05T06:48:56.100Z,31.23
2022-08-05T06:51:30.100Z,30.64
2022-08-05T06:54:03.652Z,30.69
2022-08-05T06:56:33.399Z,30.90
2022-08-05T06:59:09.575Z,30.11
2022-08-05T07:01:40.887Z,30.15
2022-08-05T07:04:10.777Z,29.37
2022-08-05T07:06:41.748Z,29.71
2022-08-05T07:09:14.863Z,29.20
2022-08-05T07:11:47.902Z,29.37
2022-08-05T07:14:37.917Z,29.11
2022-08-05T07:18:00.459Z,28.25
2022-08-05T07:22:44.592Z,28.30
2022-08-05T07:25:54.472Z,26.62
2022-08-05T07:28:05.890Z,27.37
2022-08-05T07:30:39.149Z,26.65
2022-08-05T07:33:16.519Z,26.71
2022-08-05T07:36:02.607Z,27.13
2022-08-05T07:38:42.641Z,27.92
2022-08-05T07:41:35.124Z,27.57
2022-08-05T07:44:03.116Z,27.08
2022-08-05T07:46:33.696Z,26.53
2022-08-05T07:49:06.250Z,26.76
2022-08-05T07:51:48.645Z,26.46
2022-08-05T07:54:30.603Z,26.77
2022-08-05T07:57:41.997Z,26.90
2022-08-05T07:59:50.397Z,27.23
2022-08-05T08:02:18.546Z,26.07
2022-08-05T08:04:47.452Z,26.57
2022-08-05T08:07:15.372Z,26.68
2022-08-05T08:09:43.634Z,27.06
2022-08-05T08:12:37.419Z,26.45
2022-08-05T08:15:02.708Z,26.36
2022-08-05T08:17:35.310Z,26.16
2022-08-05T08:20:42.649Z,25.55
2022-08-05T08:22:59.433Z,25.73
2022-08-05T08:26:00.392Z,25.52
2022-08-05T08:28:35.536Z,25.93
2022-08-05T08:31:07.796Z,26.33
2022-08-05T08:33:37.921Z,26.03
2022-08-05T08:38:57.028Z,25.41
2022-08-05T08:41:52.259Z,24.17
2022-08-05T08:45:23.475Z,25.33
2022-08-05T08:47:47.651Z,25.40
2022-08-05T08:50:13.222Z,25.54
2022-08-05T08:52:51.835Z,24.67
2022-08-05T08:55:32.148Z,24.63
2022-08-05T08:58:09.986Z,24.75
2022-08-05T09:00:42.506Z,24.86
2022-08-05T09:03:11.826Z,24.73
2022-08-05T09:06:07.997Z,25.27
2022-08-05T09:08:31.373Z,24.34
2022-08-05T09:10:59.402Z,24.34
2022-08-05T09:13:31.403Z,23.61
2022-08-05T09:16:03.486Z,24.00
2022-08-05T09:18:31.058Z,23.81
2022-08-05T09:20:58.550Z,22.83
2022-08-05T09:23:28.877Z,23.51
2022-08-05T09:26:10.304Z,23.32
2022-08-05T09:28:43.993Z,22.77
2022-08-05T09:31:22.808Z,23.34
2022-08-05T09:34:04.497Z,22.51
2022-08-05T09:36:55.844Z,21.97
2022-08-05T09:39:41.362Z,21.57
2022-08-05T09:42:24.452Z,21.91
2022-08-05T09:44:57.460Z,22.19
2022-08-05T09:47:55.857Z,21.77
2022-08-05T09:50:37.737Z,21.29
2022-08-05T09:53:17.133Z,20.80
2022-08-05T09:56:04.661Z,21.36
2022-08-05T09:58:32.598Z,20.44
2022-08-05T10:01:13.388Z,20.28
2022-08-05T10:04:03.205Z,20.80
2022-08-05T10:06:31.876Z,21.25
2022-08-05T10:09:25.315Z,20.68
2022-08-05T10:12:18.543Z,19.88
2022-08-05T10:15:13.854Z,19.84
2022-08-05T10:17:54.499Z,19.50
2022-08-05T10:20:25.477Z,20.82
2022-08-05T10:22:53.018Z,19.33
2022-08-05T10:25:20.944Z,19.49
2022-08-05T10:28:13.192Z,19.92
2022-08-05T10:31:20.922Z,19.07
2022-08-05T10:33:29.573Z,19.53
2022-08-05T10:36:04.398Z,18.54
2022-08-05T10:38:34.054Z,19.34
2022-08-05T10:41:10.039Z,18.64
2022-08-05T10:44:13.578Z,19.03
2022-08-05T10:46:54.295Z,17.91
2022-08-05T10:49:27.018Z,18.01
2022-08-05T10:52:03.222Z,18.23
2022-08-05T10:55:04.192Z,18.34
2022-08-05T10:57:33.864Z,18.58
2022-08-05T11:00:18.497Z,17.39
2022-08-05T11:03:22.964Z,18.45
2022-08-05T11:06:16.032Z,17.93
2022-08-05T11:09:10.337Z,17.58
2022-08-05T11:11:52.136Z,17.34
2022-08-05T11:14:57.872Z,18.52
2022-08-05T11:17:56.722Z,18.04
2022-08-05T11:20:32.967Z,18.11
2022-08-05T11:23:06.032Z,17.79
2022-08-05T11:26:05.243Z,18.03
2022-08-05T11:28:26.819Z,17.37
2022-08-05T11:30:58.574Z,16.97
2022-08-05T11:33:43.875Z,17.69
2022-08-05T11:36:34.478Z,17.80
2022-08-05T11:39:08.191Z,17.96
2022-08-05T11:41:56.431Z,18.02
2022-08-05T11:44:40.355Z,18.62
2022-08-05T11:47:48.828Z,18.58
2022-08-05T11:50:10.093Z,18.26
2022-08-05T11:52:44.133Z,18.00
2022-08-05T11:55:14.651Z,17.62
2022-08-05T11:58:08.363Z,17.96
2022-08-05T12:00:38.578Z,18.30
2022-08-05T12:03:23.991Z,18.04
2022-08-05T12:06:00.868Z,17.52
2022-08-05T12:08:28.993Z,18.34
2022-08-05T12:11:05.677Z,17.90
2022-08-05T12:13:48.973Z,17.35
2022-08-05T12:16:25.514Z,18.13
2022-08-05T12:18:55.574Z,19.09
2022-08-05T12:21:24.775Z,18.85
2022-08-05T12:24:06.725Z,18.60
2022-08-05T12:26:50.081Z,18.71
2022-08-05T12:29:22.589Z,19.04
2022-08-05T12:31:55.174Z,19.70
2022-08-05T12:34:28.948Z,18.73
2022-08-05T12:36:58.659Z,18.57
2022-08-05T12:39:27.925Z,18.37
2022-08-05T12:42:02.775Z,18.88
2022-08-05T12:44:33.439Z,18.57
2022-08-05T12:47:02.792Z,18.46
2022-08-05T12:50:03.421Z,18.94
2022-08-05T12:52:39.663Z,18.40
2022-08-05T12:55:25.643Z,18.51
2022-08-05T12:58:50.572Z,18.40
2022-08-05T13:02:03.463Z,18.75
2022-08-05T13:03:33.100Z,18.67
2022-08-05T13:06:01.701Z,18.11
2022-08-05T13:08:30.349Z,17.95
2022-08-05T13:11:01.896Z,18.46
2022-08-05T13:14:04.930Z,18.79
2022-08-05T13:16:19.942Z,18.63
2022-08-05T13:18:55.145Z,18.06
2022-08-05T13:21:27.816Z,18.82
2022-08-05T13:23:56.534Z,18.00
2022-08-05T13:26:30.164Z,17.89
2022-08-05T13:28:59.143Z,17.65
2022-08-05T13:32:03.079Z,17.29
2022-08-05T13:34:20.920Z,18.13
2022-08-05T13:36:55.922Z,17.86
2022-08-05T13:40:14.484Z,18.35
2022-08-05T13:42:14.757Z,17.49
2022-08-05T13:44:45.920Z,17.26
2022-08-05T13:47:35.611Z,17.18
2022-08-05T13:50:08.152Z,17.09
2022-08-05T13:52:38.981Z,17.27
2022-08-05T13:55:09.826Z,16.93
2022-08-05T13:57:50.900Z,16.43
2022-08-05T14:00:26.732Z,16.80
2022-08-05T14:02:58.381Z,17.51
2022-08-05T14:05:48.418Z,17.83
2022-08-05T14:08:20.907Z,17.37
2022-08-05T14:11:03.287Z,17.53
2022-08-05T14:13:43.907Z,17.16
2022-08-05T14:16:16.938Z,17.16
2022-08-05T14:18:45.036Z,17.39
2022-08-05T14:22:07.280Z,17.21
2022-08-05T14:24:00.536Z,17.71
2022-08-05T14:26:36.828Z,17.39
2022-08-05T14:29:15.991Z,17.38
2022-08-05T14:32:02.379Z,17.35
2022-08-05T14:34:35.883Z,17.52
2022-08-05T14:37:04.826Z,17.31
2022-08-05T14:39:49.907Z,17.03
2022-08-05T14:42:22.302Z,17.15
2022-08-05T14:44:50.150Z,17.69
2022-08-05T14:47:58.324Z,17.20
2022-08-05T14:50:17.694Z,17.14
2022-08-05T14:52:53.627Z,17.27
2022-08-05T14:55:39.251Z,17.60
2022-08-05T14:58:11.347Z,17.73
2022-08-05T15:00:58.388Z,16.97
2022-08-05T15:03:33.341Z,16.97
2022-08-05T15:06:07.943Z,17.04
2022-08-05T15:08:59.233Z,18.26
2022-08-05T15:11:52.626Z,17.35
2022-08-05T15:14:33.631Z,17.25
2022-08-05T15:17:05.456Z,18.01
2022-08-05T15:19:42.166Z,18.08
2022-08-05T15:22:17.556Z,17.54
2022-08-05T15:24:45.237Z,17.05
2022-08-05T15:27:13.240Z,16.96
2022-08-05T15:29:42.299Z,17.07
2022-08-05T15:32:09.962Z,16.72
2022-08-05T15:34:37.518Z,17.13
2022-08-05T15:37:06.771Z,17.33
2022-08-05T15:41:00.836Z,17.32
2022-08-05T15:42:57.032Z,17.01
2022-08-05T15:45:18.779Z,16.86
2022-08-05T15:47:54.955Z,17.24
2022-08-05T15:50:25.346Z,17.55
2022-08-05T15:52:55.325Z,17.22
2022-08-05T15:55:24.613Z,17.18
2022-08-05T15:57:52.769Z,17.00
2022-08-05T16:00:26.285Z,17.04
2022-08-05T16:03:00.984Z,17.49
2022-08-05T16:05:29.766Z,17.98
2022-08-05T16:07:58.103Z,17.88
2022-08-05T16:10:27.019Z,18.35
2022-08-05T16:12:56.209Z,17.50
2022-08-05T16:15:24.149Z,17.20
2022-08-05T16:18:00.478Z,17.26
2022-08-05T16:20:31.694Z,17.57
2022-08-05T16:23:00.966Z,17.84
2022-08-05T16:25:32.295Z,18.33
2022-08-05T16:28:06.139Z,17.52
2022-08-05T16:30:34.361Z,17.51
2022-08-05T16:33:04.169Z,17.78
2022-08-05T16:35:32.375Z,17.81
2022-08-05T16:38:16.919Z,17.63
2022-08-05T16:40:55.474Z,18.11
2022-08-05T16:43:32.450Z,18.20
2022-08-05T16:46:04.637Z,17.79
2022-08-05T16:48:37.677Z,18.11
2022-08-05T16:51:10.104Z,18.04
2022-08-05T16:54:04.180Z,18.15
2022-08-05T16:56:30.836Z,18.13
2022-08-05T16:58:58.853Z,18.45
2022-08-05T17:01:52.504Z,18.24
2022-08-05T17:04:16.437Z,17.99
2022-08-05T17:06:53.467Z,18.41
2022-08-05T17:09:21.702Z,18.33
2022-08-05T17:11:54.781Z,18.74
2022-08-05T17:14:34.150Z,18.77
2022-08-05T17:17:03.892Z,18.75
2022-08-05T17:19:32.503Z,18.91
2022-08-05T17:22:01.461Z,18.95
2022-08-05T17:24:38.518Z,18.83
2022-08-05T17:27:07.990Z,18.83
2022-08-05T17:29:41.208Z,18.90
2022-08-05T17:32:11.320Z,19.02
2022-08-05T17:34:40.429Z,18.98
2022-08-05T17:37:32.141Z,19.09
2022-08-05T17:39:59.995Z,19.27
2022-08-05T17:42:31.950Z,19.14
2022-08-05T17:45:17.947Z,19.42
2022-08-05T17:47:55.319Z,19.49
2022-08-05T17:50:28.733Z,19.66
2022-08-05T17:53:01.991Z,19.71
2022-08-05T17:55:38.126Z,19.80
2022-08-05T17:58:11.303Z,19.94
2022-08-05T18:00:47.805Z,20.23
2022-08-05T18:06:11.671Z,20.50
2022-08-05T18:08:45.524Z,20.82
2022-08-05T18:11:23.200Z,20.99
2022-08-05T18:13:52.998Z,21.50
2022-08-05T18:16:20.806Z,21.72
2022-08-05T18:18:49.833Z,21.63
2022-08-05T18:21:19.951Z,21.57
2022-08-05T18:23:53.651Z,21.66
2022-08-05T18:26:27.820Z,21.58
2022-08-05T18:28:59.710Z,21.58
2022-08-05T18:31:32.927Z,21.58
2022-08-05T18:34:02.333Z,21.65
2022-08-05T18:36:30.265Z,22.14
2022-08-05T18:38:57.981Z,22.51
2022-08-05T18:41:56.634Z,23.39
2022-08-05T18:44:14.573Z,23.82
2022-08-05T18:47:01.045Z,23.72
2022-08-05T18:49:58.261Z,24.18
2022-08-05T18:52:35.752Z,24.39
2022-08-05T18:55:06.053Z,24.48
2022-08-05T18:57:49.918Z,24.59
2022-08-05T19:00:28.369Z,24.82
2022-08-05T19:02:57.821Z,25.15
2022-08-05T19:06:12.842Z,25.74
2022-08-05T19:08:22.445Z,25.88
2022-08-05T19:10:59.640Z,26.31
2022-08-05T19:13:35.971Z,26.43
2022-08-05T19:16:24.477Z,26.78
2022-08-05T19:18:53.766Z,27.05
2022-08-05T19:21:25.783Z,26.94
2022-08-05T19:24:05.320Z,27.09
2022-08-05T19:26:36.692Z,27.08
2022-08-05T19:29:35.491Z,26.63
2022-08-05T19:32:11.161Z,27.09
2022-08-05T19:34:39.285Z,27.11
2022-08-05T19:37:07.438Z,27.50
2022-08-05T19:39:45.931Z,27.30
2022-08-05T19:42:35.915Z,27.26
2022-08-05T19:45:05.665Z,27.48
2022-08-05T19:47:37.442Z,27.58
2022-08-05T19:50:07.802Z,27.75
2022-08-05T19:52:38.625Z,27.82
2022-08-05T19:56:11.754Z,27.92
2022-08-05T19:58:19.718Z,28.55
2022-08-05T20:00:42.448Z,28.26
2022-08-05T20:03:11.121Z,28.16
2022-08-05T20:05:43.174Z,28.42
2022-08-05T20:08:19.702Z,28.88
2022-08-05T20:10:49.643Z,29.21
2022-08-05T20:13:17.879Z,29.11
2022-08-05T20:15:51.502Z,29.33
2022-08-05T20:18:33.375Z,29.55
2022-08-05T20:21:05.263Z,29.80
2022-08-05T20:23:39.524Z,30.09
2022-08-05T20:26:24.678Z,29.96
2022-08-05T20:28:55.917Z,29.93
2022-08-05T20:31:36.836Z,30.02
2022-08-05T20:34:11.659Z,30.17
2022-08-05T20:36:43.223Z,30.05
2022-08-05T20:39:13.462Z,30.04
2022-08-05T20:41:45.164Z,29.92
2022-08-05T20:44:18.946Z,29.95
2022-08-05T20:46:59.181Z,30.64
2022-08-05T20:49:27.285Z,31.11
2022-08-05T20:51:57.220Z,30.20
2022-08-05T20:54:43.066Z,30.72
2022-08-05T20:57:15.237Z,30.59
2022-08-05T21:00:20.980Z,30.73
2022-08-05T21:02:57.032Z,31.05
2022-08-05T21:05:25.430Z,30.75
2022-08-05T21:08:06.417Z,31.78
2022-08-05T21:10:34.434Z,31.29
2022-08-05T21:13:08.766Z,31.38
2022-08-05T21:15:47.843Z,31.62
2022-08-05T21:18:18.990Z,30.79
2022-08-05T21:20:46.824Z,30.58
2022-08-05T21:23:15.314Z,30.95
2022-08-05T21:25:44.851Z,30.75
2022-08-05T21:28:13.010Z,31.09
2022-08-05T21:30:46.227Z,31.20
2022-08-05T21:33:22.349Z,31.28
2022-08-05T21:35:58.450Z,31.22
2022-08-05T21:38:27.707Z,31.06
2022-08-05T21:40:55.440Z,30.87
2022-08-05T21:43:24.445Z,31.01
2022-08-05T21:45:57.442Z,31.38
2022-08-05T21:48:28.765Z,31.51
2022-08-05T21:50:57.315Z,31.84
2022-08-05T21:53:27.595Z,31.77
2022-08-05T21:56:06.595Z,31.96
2022-08-05T21:58:57.293Z,32.87
2022-08-05T22:01:26.768Z,32.56
2022-08-05T22:03:54.659Z,32.45
2022-08-05T22:06:34.769Z,32.22
2022-08-05T22:09:13.887Z,32.45
2022-08-05T22:11:46.693Z,32.63
2022-08-05T22:14:35.857Z,32.67
2022-08-05T22:17:08.026Z,32.86
2022-08-05T22:20:02.074Z,32.95
2022-08-05T22:22:26.776Z,32.77
2022-08-05T22:25:18.122Z,32.66
2022-08-05T22:28:08.572Z,33.05
2022-08-05T22:30:55.612Z,33.49
2022-08-05T22:33:55.776Z,33.56
2022-08-05T22:36:16.421Z,33.07
2022-08-05T22:38:48.193Z,33.20
2022-08-05T22:42:04.962Z,33.17
2022-08-05T22:44:08.005Z,33.38
2022-08-05T22:46:39.957Z,33.31
2022-08-05T22:50:18.361Z,32.95
2022-08-05T22:52:04.774Z,32.85
2022-08-05T22:54:36.310Z,33.27
2022-08-05T22:57:10.012Z,33.43
2022-08-05T22:59:47.356Z,33.48
2022-08-05T23:02:29.624Z,33.21
2022-08-05T23:05:01.792Z,33.29
2022-08-05T23:07:33.756Z,33.54
2022-08-05T23:10:20.099Z,33.58
2022-08-05T23:12:54.215Z,33.64
2022-08-05T23:15:29.293Z,33.74
2022-08-05T23:18:03.189Z,33.41
2022-08-05T23:20:32.671Z,34.35
2022-08-05T23:23:08.722Z,33.89
2022-08-05T23:25:50.870Z,33.68
2022-08-05T23:28:29.016Z,33.79
2022-08-05T23:31:17.251Z,33.87
2022-08-05T23:34:05.614Z,34.42
2022-08-05T23:36:40.132Z,34.22
2022-08-05T23:39:17.219Z,33.74
2022-08-05T23:41:51.994Z,34.19
2022-08-05T23:44:25.166Z,34.09
2022-08-05T23:47:15.083Z,34.32
2022-08-05T23:49:46.302Z,34.32
2022-08-05T23:52:28.496Z,33.87
2022-08-05T23:55:00.597Z,34.50
2022-08-05T23:57:31.307Z,34.59
